Bergneustadt/Auf dem Dumpel Airport


Codes: EDKF/
Name: Bergneustadt/Auf dem Dumpel Airport
City: Bergneustadt
Country: Germany
Elevation: 1604 ft.

Photos at Bergneustadt/Auf dem Dumpel Airport


   Photos courtesy of SpottingLog. You can add your own sightings and photos by signing up for a free trial today.



No photos found.

Weather at Bergneustadt/Auf dem Dumpel Airport


Time (UTC)DescriptionTempratureWindCloud coverageVisibilityPressureHumidity
19-Apr-2024 06:00Snow3°C11 mph, SW100%288m1012hPa93%
19-Apr-2024 09:00Moderate Rain4°C11 mph, N100%0m1009hPa96%
19-Apr-2024 12:00Moderate Rain5°C9 mph, W100%10000m1007hPa96%
19-Apr-2024 15:00Light Rain4°C11 mph, NW100%10000m1007hPa95%
19-Apr-2024 18:00Light Rain3°C13 mph, NW92%10000m1009hPa92%
19-Apr-2024 21:00Light Rain2°C13 mph, N88%0m1011hPa98%
20-Apr-2024 00:00Light Rain3°C11 mph, N94%0m1013hPa98%
20-Apr-2024 03:00Light Snow2°C9 mph, NW98%10000m1015hPa93%
20-Apr-2024 06:00Broken Clouds1°C7 mph, NW67%10000m1019hPa93%
20-Apr-2024 09:00Light Snow5°C7 mph, N100%10000m1020hPa75%
20-Apr-2024 12:00Light Rain5°C7 mph, NW100%1260m1021hPa83%
20-Apr-2024 15:00Light Rain3°C7 mph, NW100%543m1022hPa99%
20-Apr-2024 18:00Light Rain3°C2 mph, NW90%10000m1022hPa95%
20-Apr-2024 21:00Overcast Clouds-0°C2 mph, NW100%10000m1023hPa98%
21-Apr-2024 00:00Overcast Clouds-1°C2 mph, NE95%10000m1024hPa98%
21-Apr-2024 03:00Broken Clouds-1°C2 mph, N52%10000m1024hPa99%
21-Apr-2024 06:00Broken Clouds2°C4 mph, NE74%10000m1025hPa96%
21-Apr-2024 09:00Light Snow3°C9 mph, E100%1107m1026hPa93%
21-Apr-2024 12:00Light Rain5°C7 mph, NE99%10000m1026hPa77%
21-Apr-2024 15:00Light Rain7°C7 mph, NE92%10000m1025hPa64%
21-Apr-2024 18:00Light Rain3°C4 mph, NE95%10000m1026hPa82%
21-Apr-2024 21:00Overcast Clouds1°C4 mph, NE100%10000m1027hPa91%
22-Apr-2024 00:00Overcast Clouds0°C4 mph, NE100%10000m1027hPa94%
22-Apr-2024 03:00Overcast Clouds-0°C4 mph, N100%10000m1027hPa91%
22-Apr-2024 06:00Overcast Clouds1°C4 mph, N100%10000m1026hPa85%
22-Apr-2024 09:00Overcast Clouds5°C7 mph, N100%10000m1025hPa52%
22-Apr-2024 12:00Light Rain5°C7 mph, N100%7598m1024hPa58%
22-Apr-2024 15:00Snow3°C4 mph, NE100%1157m1023hPa90%
22-Apr-2024 18:00Light Snow2°C2 mph, E100%10000m1022hPa92%
22-Apr-2024 21:00Overcast Clouds-1°C4 mph, NE100%10000m1023hPa95%
23-Apr-2024 00:00Overcast Clouds-3°C4 mph, NE96%10000m1022hPa96%
23-Apr-2024 03:00Overcast Clouds-2°C4 mph, NE94%10000m1020hPa98%
23-Apr-2024 06:00Overcast Clouds1°C4 mph, E85%10000m1019hPa89%
23-Apr-2024 09:00Light Rain6°C9 mph, E87%10000m1018hPa62%
23-Apr-2024 12:00Light Rain7°C7 mph, SE93%10000m1017hPa63%
23-Apr-2024 15:00Light Rain8°C7 mph, E85%10000m1016hPa59%
23-Apr-2024 18:00Light Rain5°C4 mph, NE81%10000m1016hPa81%
23-Apr-2024 21:00Clear Sky1°C4 mph, NE8%10000m1018hPa94%
24-Apr-2024 00:00Clear Sky-0°C2 mph, NE7%10000m1017hPa93%
24-Apr-2024 03:00Few Clouds-1°C2 mph, NW21%10000m1016hPa93%